ARG1990 SAWC-SAEZ
Flight info
| Callsign | ARG1990 |
|---|---|
| Flight time | N/A |
| Altitude | 35000 |
| Route | BOKU2G BOKUK UW48 CRV UP664 TRE UT693 BCA UW22 VALOS |
| Aircraft | B77L/H-SDE1E2E3FGHIJ2J3J4J5M1RWXY/LB1D1 |
Departure
| Time | 2026-05-08 20:45 |
|---|---|
| Airport | El Calafate - Commander Armando Tola International Airport (SAWC) |
Arrival
| Time | N/A |
|---|---|
| Airport | Ezeiza International Airport - Ministro Pistarini (SAEZ) |
| Time | Latitude | Longitude | Altitude | Speed | Heading |
|---|---|---|---|---|---|
| 2026-05-08 20:20 | -50.28328 | -72.05496 | 648 ft | 0 kts | 143° |
| 2026-05-08 20:37 | -50.28311 | -72.05514 | 649 ft | 4 kts | 145° |
| 2026-05-08 20:37 | -50.28289 | -72.05539 | 647 ft | 4 kts | 142° |
| 2026-05-08 20:38 | -50.28274 | -72.05563 | 650 ft | 3 kts | 107° |
| 2026-05-08 20:38 | -50.28272 | -72.05584 | 651 ft | 2 kts | 87° |
| 2026-05-08 20:38 | -50.28273 | -72.05601 | 651 ft | 2 kts | 84° |
| 2026-05-08 20:38 | -50.28273 | -72.05602 | 651 ft | 0 kts | 84° |
| 2026-05-08 20:41 | -50.28273 | -72.05601 | 651 ft | 1 kts | 84° |
| 2026-05-08 20:41 | -50.28268 | -72.05535 | 647 ft | 9 kts | 84° |
| 2026-05-08 20:41 | -50.28255 | -72.05437 | 649 ft | 9 kts | 61° |
| 2026-05-08 20:41 | -50.28200 | -72.05399 | 647 ft | 9 kts | 352° |
| 2026-05-08 20:42 | -50.28135 | -72.05413 | 647 ft | 9 kts | 352° |
| 2026-05-08 20:42 | -50.28071 | -72.05417 | 648 ft | 9 kts | 358° |
| 2026-05-08 20:42 | -50.28033 | -72.05487 | 647 ft | 10 kts | 276° |
| 2026-05-08 20:42 | -50.28041 | -72.05674 | 649 ft | 25 kts | 264° |
| 2026-05-08 20:43 | -50.28059 | -72.05974 | 647 ft | 28 kts | 264° |
| 2026-05-08 20:43 | -50.28076 | -72.06275 | 648 ft | 28 kts | 265° |
| 2026-05-08 20:43 | -50.28093 | -72.06577 | 648 ft | 28 kts | 265° |
| 2026-05-08 20:43 | -50.28109 | -72.06828 | 648 ft | 17 kts | 257° |
| 2026-05-08 20:44 | -50.28162 | -72.06979 | 647 ft | 13 kts | 249° |
| 2026-05-08 20:44 | -50.28147 | -72.07063 | 648 ft | 9 kts | 341° |
| 2026-05-08 20:44 | -50.28118 | -72.07002 | 647 ft | 8 kts | 86° |
| 2026-05-08 20:44 | -50.28109 | -72.06789 | 648 ft | 41 kts | 86° |
| 2026-05-08 20:45 | -50.28053 | -72.05898 | 649 ft | 122 kts | 84° |
| 2026-05-08 20:45 | -50.27951 | -72.04216 | 666 ft | 187 kts | 84° |
| 2026-05-08 20:45 | -50.27831 | -72.02149 | 1341 ft | 192 kts | 84° |
| 2026-05-08 20:45 | -50.27704 | -72.00062 | 2246 ft | 194 kts | 84° |
| 2026-05-08 20:46 | -50.27578 | -71.97949 | 2883 ft | 200 kts | 83° |
| 2026-05-08 20:46 | -50.27454 | -71.95716 | 3258 ft | 213 kts | 83° |
| 2026-05-08 20:46 | -50.27259 | -71.93318 | 3487 ft | 233 kts | 70° |
| 2026-05-08 20:46 | -50.26342 | -71.91238 | 3827 ft | 239 kts | 29° |
| 2026-05-08 20:47 | -50.24740 | -71.90576 | 4396 ft | 244 kts | 352° |
| 2026-05-08 20:47 | -50.23186 | -71.91581 | 5096 ft | 247 kts | 318° |
| 2026-05-08 20:47 | -50.21971 | -71.93485 | 5808 ft | 248 kts | 319° |
| 2026-05-08 20:47 | -50.20531 | -71.95048 | 6260 ft | 264 kts | 334° |
| 2026-05-08 20:48 | -50.18736 | -71.95819 | 7064 ft | 265 kts | 355° |
| 2026-05-08 20:48 | -50.16903 | -71.95805 | 7652 ft | 272 kts | 358° |
| 2026-05-08 20:48 | -50.14985 | -71.95854 | 8311 ft | 278 kts | 357° |
| 2026-05-08 20:48 | -50.13043 | -71.95894 | 9070 ft | 281 kts | 358° |
| 2026-05-08 20:49 | -50.11070 | -71.95962 | 9828 ft | 285 kts | 356° |
| 2026-05-08 20:49 | -50.09073 | -71.96086 | 10552 ft | 289 kts | 355° |
| 2026-05-08 20:49 | -50.06996 | -71.96194 | 10986 ft | 304 kts | 355° |
| 2026-05-08 20:49 | -50.04842 | -71.96213 | 11121 ft | 326 kts | 8° |
| 2026-05-08 20:50 | -50.02654 | -71.94827 | 11289 ft | 347 kts | 32° |
| 2026-05-08 20:50 | -50.00594 | -71.92634 | 11499 ft | 369 kts | 35° |
| 2026-05-08 20:50 | -49.98497 | -71.90281 | 11994 ft | 381 kts | 36° |
| 2026-05-08 20:50 | -49.96316 | -71.87848 | 12641 ft | 390 kts | 36° |
| 2026-05-08 20:51 | -49.94091 | -71.85409 | 13471 ft | 394 kts | 36° |
| 2026-05-08 20:51 | -49.91822 | -71.82970 | 14301 ft | 399 kts | 36° |
| 2026-05-08 20:51 | -49.89510 | -71.80520 | 15009 ft | 405 kts | 36° |
| 2026-05-08 20:51 | -49.87170 | -71.78047 | 15728 ft | 410 kts | 36° |
| 2026-05-08 20:52 | -49.84799 | -71.75543 | 16406 ft | 415 kts | 36° |
| 2026-05-08 20:52 | -49.82387 | -71.72998 | 17104 ft | 421 kts | 36° |
| 2026-05-08 20:52 | -49.79956 | -71.70439 | 17779 ft | 426 kts | 37° |
| 2026-05-08 20:52 | -49.77480 | -71.67835 | 18450 ft | 432 kts | 37° |
| 2026-05-08 20:53 | -49.74979 | -71.65209 | 19066 ft | 438 kts | 37° |
| 2026-05-08 20:53 | -49.72441 | -71.62546 | 19604 ft | 444 kts | 37° |
| 2026-05-08 20:53 | -49.69864 | -71.59845 | 20128 ft | 450 kts | 37° |
| 2026-05-08 20:53 | -49.67256 | -71.57116 | 20647 ft | 456 kts | 37° |
| 2026-05-08 20:54 | -49.64616 | -71.54358 | 21167 ft | 462 kts | 37° |
| 2026-05-08 20:54 | -49.61939 | -71.51564 | 21686 ft | 467 kts | 37° |
| 2026-05-08 20:54 | -49.59222 | -71.48732 | 22209 ft | 473 kts | 37° |
| 2026-05-08 20:54 | -49.56479 | -71.45877 | 22722 ft | 479 kts | 37° |
| 2026-05-08 20:55 | -49.53704 | -71.42966 | 23233 ft | 484 kts | 38° |
| 2026-05-08 20:55 | -49.50941 | -71.39945 | 23745 ft | 489 kts | 39° |
| 2026-05-08 20:55 | -49.48173 | -71.36854 | 24225 ft | 494 kts | 40° |
| 2026-05-08 20:55 | -49.45419 | -71.33764 | 24639 ft | 499 kts | 40° |
| 2026-05-08 20:56 | -49.42563 | -71.30572 | 25080 ft | 504 kts | 40° |
| 2026-05-08 20:56 | -49.39733 | -71.27428 | 25482 ft | 509 kts | 39° |
| 2026-05-08 20:56 | -49.36844 | -71.24235 | 25884 ft | 514 kts | 39° |
| 2026-05-08 20:56 | -49.33922 | -71.21019 | 26295 ft | 519 kts | 39° |
| 2026-05-08 20:57 | -49.30969 | -71.17778 | 26691 ft | 524 kts | 39° |
| 2026-05-08 20:57 | -49.27992 | -71.14515 | 27072 ft | 529 kts | 39° |
| 2026-05-08 20:57 | -49.24980 | -71.11217 | 27461 ft | 534 kts | 39° |
| 2026-05-08 20:57 | -49.21951 | -71.07906 | 27843 ft | 538 kts | 39° |
| 2026-05-08 20:58 | -49.18889 | -71.04564 | 28214 ft | 543 kts | 39° |
| 2026-05-08 20:58 | -49.15798 | -71.01193 | 28572 ft | 548 kts | 39° |
| 2026-05-08 20:58 | -49.12679 | -70.97798 | 28929 ft | 553 kts | 39° |
| 2026-05-08 20:58 | -49.09527 | -70.94371 | 29260 ft | 557 kts | 39° |
| 2026-05-08 20:59 | -49.06357 | -70.90931 | 29605 ft | 561 kts | 39° |
| 2026-05-08 20:59 | -49.03166 | -70.87472 | 30003 ft | 564 kts | 39° |
| 2026-05-08 20:59 | -48.99958 | -70.84002 | 30444 ft | 565 kts | 39° |
| 2026-05-08 20:59 | -48.96795 | -70.80586 | 30847 ft | 566 kts | 39° |
| 2026-05-08 21:00 | -48.93524 | -70.77064 | 31193 ft | 568 kts | 38° |
| 2026-05-08 21:00 | -48.90343 | -70.73609 | 31444 ft | 567 kts | 41° |
| 2026-05-08 21:00 | -48.87165 | -70.70032 | 31599 ft | 573 kts | 40° |
| 2026-05-08 21:00 | -48.83882 | -70.66545 | 31894 ft | 575 kts | 39° |
| 2026-05-08 21:01 | -48.80579 | -70.63100 | 32278 ft | 575 kts | 39° |
| 2026-05-08 21:01 | -48.77282 | -70.59628 | 32641 ft | 576 kts | 39° |
| 2026-05-08 21:01 | -48.74009 | -70.56136 | 32938 ft | 578 kts | 40° |
| 2026-05-08 21:01 | -48.70832 | -70.52421 | 33203 ft | 572 kts | 50° |
| 2026-05-08 21:02 | -48.68224 | -70.47979 | 33431 ft | 562 kts | 60° |
| 2026-05-08 21:02 | -48.65815 | -70.43292 | 33729 ft | 562 kts | 61° |
| 2026-05-08 21:02 | -48.63442 | -70.38597 | 34063 ft | 563 kts | 61° |
| 2026-05-08 21:02 | -48.61037 | -70.33918 | 34380 ft | 565 kts | 61° |
| 2026-05-08 21:03 | -48.58604 | -70.29315 | 34693 ft | 567 kts | 60° |
| 2026-05-08 21:03 | -48.56112 | -70.24700 | 35044 ft | 565 kts | 59° |
| 2026-05-08 21:03 | -48.53616 | -70.20134 | 35449 ft | 563 kts | 59° |
| 2026-05-08 21:04 | -48.48619 | -70.10976 | 35512 ft | 565 kts | 59° |
| 2026-05-08 21:04 | -48.43497 | -70.02051 | 35512 ft | 569 kts | 49° |
| 2026-05-08 21:05 | -48.37060 | -69.94917 | 35526 ft | 577 kts | 39° |
| 2026-05-08 21:05 | -48.30370 | -69.88330 | 35532 ft | 578 kts | 39° |
| 2026-05-08 21:06 | -48.23701 | -69.81599 | 35534 ft | 578 kts | 40° |
| 2026-05-08 21:06 | -48.17100 | -69.74711 | 35533 ft | 578 kts | 41° |
| 2026-05-08 21:07 | -48.10526 | -69.67792 | 35531 ft | 578 kts | 41° |
| 2026-05-08 21:07 | -48.03938 | -69.60900 | 35531 ft | 578 kts | 41° |
| 2026-05-08 21:08 | -47.97330 | -69.54036 | 35528 ft | 578 kts | 41° |
| 2026-05-08 21:08 | -47.90717 | -69.47197 | 35523 ft | 577 kts | 41° |
| 2026-05-08 21:09 | -47.84155 | -69.40430 | 35513 ft | 576 kts | 41° |
| 2026-05-08 21:09 | -47.77560 | -69.33646 | 35520 ft | 575 kts | 41° |
| 2026-05-08 21:10 | -47.70984 | -69.26903 | 35513 ft | 574 kts | 42° |
| 2026-05-08 21:10 | -47.64408 | -69.20181 | 35515 ft | 573 kts | 42° |
| 2026-05-08 21:11 | -47.57829 | -69.13475 | 35512 ft | 573 kts | 42° |
| 2026-05-08 21:11 | -47.51251 | -69.06793 | 35510 ft | 573 kts | 42° |
| 2026-05-08 21:12 | -47.44676 | -69.00133 | 35502 ft | 573 kts | 42° |
| 2026-05-08 21:12 | -47.38090 | -68.93486 | 35491 ft | 573 kts | 42° |
| 2026-05-08 21:13 | -47.31542 | -68.86895 | 35487 ft | 572 kts | 42° |
| 2026-05-08 21:13 | -47.24960 | -68.80293 | 35483 ft | 572 kts | 42° |
| 2026-05-08 21:14 | -47.18376 | -68.73708 | 35486 ft | 571 kts | 42° |
| 2026-05-08 21:14 | -47.11801 | -68.67145 | 35483 ft | 571 kts | 42° |
| 2026-05-08 21:15 | -47.05230 | -68.60610 | 35470 ft | 570 kts | 42° |
| 2026-05-08 21:15 | -46.98655 | -68.54094 | 35460 ft | 570 kts | 42° |
| 2026-05-08 21:16 | -46.93206 | -68.48708 | 35451 ft | 569 kts | 42° |
| 2026-05-08 21:16 | -46.85578 | -68.41192 | 35454 ft | 567 kts | 41° |
| 2026-05-08 21:17 | -46.80093 | -68.35802 | 35450 ft | 566 kts | 41° |
| 2026-05-08 21:17 | -46.73555 | -68.29396 | 35455 ft | 564 kts | 41° |
| 2026-05-08 21:18 | -46.67038 | -68.23028 | 35445 ft | 563 kts | 41° |
| 2026-05-08 21:18 | -46.60529 | -68.16687 | 35435 ft | 561 kts | 41° |
| 2026-05-08 21:19 | -46.54084 | -68.10427 | 35432 ft | 560 kts | 41° |
| 2026-05-08 21:19 | -46.47614 | -68.04161 | 35426 ft | 558 kts | 41° |
| 2026-05-08 21:20 | -46.41162 | -67.97929 | 35420 ft | 556 kts | 40° |
| 2026-05-08 21:20 | -46.34718 | -67.91725 | 35425 ft | 554 kts | 40° |
| 2026-05-08 21:21 | -46.28300 | -67.85563 | 35426 ft | 552 kts | 40° |
| 2026-05-08 21:21 | -46.21950 | -67.79483 | 35419 ft | 550 kts | 40° |
| 2026-05-08 21:22 | -46.15568 | -67.73389 | 35412 ft | 549 kts | 40° |
| 2026-05-08 21:22 | -46.09277 | -67.67399 | 35398 ft | 547 kts | 40° |
| 2026-05-08 21:23 | -46.02930 | -67.61373 | 35401 ft | 546 kts | 39° |
| 2026-05-08 21:23 | -45.96591 | -67.55371 | 35401 ft | 544 kts | 39° |
| 2026-05-08 21:24 | -45.90271 | -67.49402 | 35406 ft | 543 kts | 39° |
| 2026-05-08 21:24 | -45.83960 | -67.43458 | 35410 ft | 542 kts | 39° |
| 2026-05-08 21:25 | -45.77659 | -67.37538 | 35411 ft | 541 kts | 39° |
| 2026-05-08 21:25 | -45.71281 | -67.31814 | 35401 ft | 542 kts | 37° |
| 2026-05-08 21:26 | -45.64852 | -67.26321 | 35394 ft | 541 kts | 36° |
| 2026-05-08 21:26 | -45.58397 | -67.20802 | 35381 ft | 540 kts | 37° |
| 2026-05-08 21:27 | -45.51966 | -67.15261 | 35368 ft | 539 kts | 37° |
| 2026-05-08 21:27 | -45.45550 | -67.09727 | 35365 ft | 538 kts | 37° |
| 2026-05-08 21:28 | -45.39125 | -67.04205 | 35356 ft | 538 kts | 37° |
| 2026-05-08 21:28 | -45.32761 | -66.98753 | 35347 ft | 537 kts | 37° |
| 2026-05-08 21:29 | -45.26362 | -66.93287 | 35348 ft | 536 kts | 36° |
| 2026-05-08 21:29 | -45.19965 | -66.87837 | 35342 ft | 536 kts | 36° |
| 2026-05-08 21:30 | -45.13568 | -66.82400 | 35337 ft | 535 kts | 36° |
| 2026-05-08 21:30 | -45.07187 | -66.76991 | 35332 ft | 534 kts | 36° |
| 2026-05-08 21:31 | -45.00818 | -66.71605 | 35324 ft | 533 kts | 36° |
| 2026-05-08 21:31 | -44.94485 | -66.66271 | 35313 ft | 532 kts | 36° |
| 2026-05-08 21:32 | -44.88127 | -66.60937 | 35302 ft | 531 kts | 36° |
| 2026-05-08 21:32 | -44.81781 | -66.55625 | 35307 ft | 530 kts | 36° |
| 2026-05-08 21:33 | -44.75434 | -66.50323 | 35293 ft | 529 kts | 36° |
| 2026-05-08 21:33 | -44.69102 | -66.45047 | 35284 ft | 528 kts | 36° |
| 2026-05-08 21:34 | -44.62768 | -66.39782 | 35288 ft | 527 kts | 36° |
| 2026-05-08 21:34 | -44.56457 | -66.34550 | 35284 ft | 527 kts | 36° |
| 2026-05-08 21:35 | -44.50189 | -66.29367 | 35278 ft | 526 kts | 35° |
| 2026-05-08 21:35 | -44.43873 | -66.24157 | 35272 ft | 526 kts | 35° |
| 2026-05-08 21:36 | -44.37567 | -66.18969 | 35260 ft | 525 kts | 35° |
| 2026-05-08 21:36 | -44.31259 | -66.13793 | 35253 ft | 524 kts | 35° |
| 2026-05-08 21:37 | -44.25000 | -66.08669 | 35255 ft | 524 kts | 35° |
| 2026-05-08 21:37 | -44.18706 | -66.03528 | 35242 ft | 523 kts | 35° |
| 2026-05-08 21:38 | -44.12420 | -65.98408 | 35246 ft | 522 kts | 34° |
| 2026-05-08 21:38 | -44.06148 | -65.93311 | 35224 ft | 521 kts | 34° |
| 2026-05-08 21:39 | -43.99933 | -65.88271 | 35225 ft | 520 kts | 34° |
| 2026-05-08 21:39 | -43.93678 | -65.83213 | 35213 ft | 519 kts | 34° |
| 2026-05-08 21:40 | -43.87453 | -65.78187 | 35211 ft | 517 kts | 34° |
| 2026-05-08 21:40 | -43.81226 | -65.73170 | 35203 ft | 516 kts | 34° |
| 2026-05-08 21:41 | -43.71936 | -65.65705 | 35195 ft | 514 kts | 34° |
| 2026-05-08 21:41 | -43.65760 | -65.60759 | 35190 ft | 512 kts | 34° |
| 2026-05-08 21:42 | -43.59636 | -65.55865 | 35181 ft | 511 kts | 34° |
| 2026-05-08 21:42 | -43.53480 | -65.50957 | 35181 ft | 510 kts | 34° |
| 2026-05-08 21:43 | -43.47425 | -65.46142 | 35164 ft | 509 kts | 34° |
| 2026-05-08 21:43 | -43.41289 | -65.41273 | 35147 ft | 508 kts | 34° |
| 2026-05-08 21:44 | -43.35207 | -65.36458 | 35137 ft | 507 kts | 34° |
| 2026-05-08 21:44 | -43.29088 | -65.31624 | 35135 ft | 507 kts | 34° |
| 2026-05-08 21:45 | -43.22958 | -65.26792 | 35133 ft | 507 kts | 33° |
| 2026-05-08 21:45 | -43.16815 | -65.22039 | 35133 ft | 507 kts | 32° |
| 2026-05-08 21:46 | -43.10626 | -65.17501 | 35133 ft | 508 kts | 31° |
| 2026-05-08 21:46 | -43.04390 | -65.12967 | 35137 ft | 508 kts | 32° |
| 2026-05-08 21:47 | -42.98157 | -65.08410 | 35125 ft | 507 kts | 32° |
| 2026-05-08 21:47 | -42.91931 | -65.03848 | 35124 ft | 507 kts | 32° |
| 2026-05-08 21:48 | -42.85711 | -64.99299 | 35111 ft | 507 kts | 32° |
| 2026-05-08 21:48 | -42.79524 | -64.94788 | 35107 ft | 507 kts | 31° |
| 2026-05-08 21:49 | -42.73300 | -64.90260 | 35096 ft | 507 kts | 31° |
| 2026-05-08 21:49 | -42.67072 | -64.85740 | 35094 ft | 507 kts | 31° |
| 2026-05-08 21:50 | -42.60849 | -64.81234 | 35085 ft | 507 kts | 31° |
| 2026-05-08 21:50 | -42.54608 | -64.76725 | 35085 ft | 508 kts | 31° |
| 2026-05-08 21:51 | -42.48362 | -64.72222 | 35069 ft | 508 kts | 31° |
| 2026-05-08 21:51 | -42.42151 | -64.67753 | 35061 ft | 508 kts | 31° |
| 2026-05-08 21:52 | -42.35888 | -64.63274 | 35061 ft | 509 kts | 30° |
| 2026-05-08 21:52 | -42.29582 | -64.58922 | 35055 ft | 509 kts | 30° |
| 2026-05-08 21:53 | -42.23255 | -64.54608 | 35042 ft | 509 kts | 30° |
| 2026-05-08 21:53 | -42.16930 | -64.50288 | 35036 ft | 509 kts | 30° |
| 2026-05-08 21:54 | -42.10613 | -64.45965 | 35029 ft | 509 kts | 30° |
| 2026-05-08 21:54 | -42.04296 | -64.41648 | 35019 ft | 509 kts | 30° |
| 2026-05-08 21:55 | -41.97969 | -64.37336 | 35009 ft | 509 kts | 30° |
| 2026-05-08 21:56 | -41.88528 | -64.30923 | 35008 ft | 510 kts | 30° |
| 2026-05-08 21:56 | -41.82186 | -64.26623 | 35003 ft | 511 kts | 30° |
| 2026-05-08 21:57 | -41.75825 | -64.22324 | 34993 ft | 512 kts | 30° |
| 2026-05-08 21:57 | -41.69451 | -64.18022 | 34990 ft | 513 kts | 30° |
| 2026-05-08 21:58 | -41.63077 | -64.13734 | 34978 ft | 514 kts | 30° |
| 2026-05-08 21:58 | -41.56680 | -64.09437 | 34972 ft | 514 kts | 29° |
| 2026-05-08 21:59 | -41.50292 | -64.05157 | 34963 ft | 514 kts | 29° |
| 2026-05-08 21:59 | -41.43906 | -64.00888 | 34951 ft | 513 kts | 29° |
| 2026-05-08 22:00 | -41.37569 | -63.96663 | 34953 ft | 512 kts | 29° |